College Park, Maryland
Current Conditions -  °F | °C
As of 6:10 PM on Friday 19 Dec 2014 (Local Time) from KCGS Reporting Station
Clear Clear  
Wind Chill: 33°   Ceiling: Unl
Heat Index: 37°   Visibility: 10mi
Dew Point: 25°   Wind: 6mph
Humidity: 60%   Direction: 320°NW
Pressure: 30.19"   Gusts: NA
Location:  38.98°N, 76.94°W
Report Text: KCGS 192310Z AUTO 32005KT 10SM CLR 03/M04 A3019 RMK AO1
Loading
Personal Weather Stations






























Interactive Weather Map New forecast layout! Learn more

10-Day Weather Forecast

Advertisements
Track Severe Weather on mobile